Time;durP1;ratioP1;P1;durP2;ratioP2;P2;SDS_P1;SDS_P2;PMS_P1;PMS_P2;Temp;Humidity;BMP_temperature;BMP_pressure;BME280_temperature;BME280_humidity;BME280_pressure;Samples;Min_cycle;Max_cycle;Signal;HPM_P1;HPM_P2
2022/02/21 00:00:19;;;;;;;;;;;22.90;42.70;;;;;;686427;28;857;-84
2022/02/21 00:00:40;;;;;;;;;;;22.90;41.70;;;;;;686211;28;1439;-84
2022/02/21 00:01:01;;;;;;;;;;;22.90;41.60;;;;;;686232;28;921;-84
2022/02/21 00:01:21;;;;;;;;;;;22.90;41.70;;;;;;686285;28;806;-85
2022/02/21 00:01:42;;;;;;;;;;;22.90;41.60;;;;;;686229;28;483;-83
2022/02/21 00:02:02;;;;;;;;;;;22.90;41.60;;;;;;686201;28;881;-84
2022/02/21 00:02:23;;;;;;;;;;;22.90;42.70;;;;;;686312;28;807;-83
2022/02/21 00:02:44;;;;;;;;;;;22.90;41.60;;;;;;686189;28;1414;-81
2022/02/21 00:03:06;;;;;;;;;;;22.90;41.60;;;;;;686175;28;826;-82
2022/02/21 00:03:30;;;;;;;;;;;22.80;41.60;;;;;;686179;28;877;-83
2022/02/21 00:03:50;;;;;;;;;;;22.90;41.60;;;;;;686166;28;1252;-83
2022/02/21 00:04:11;;;;;;;;;;;22.90;41.60;;;;;;686009;28;1413;-83
2022/02/21 00:04:31;;;;;;;;;;;22.90;41.70;;;;;;685991;28;842;-83
2022/02/21 00:04:52;;;;;;;;;;;22.80;41.50;;;;;;686089;28;834;-82
2022/02/21 00:05:16;;;;;;;;;;;22.80;41.50;;;;;;685980;28;850;-82
2022/02/21 00:05:36;;;;;;;;;;;22.90;41.70;;;;;;686070;28;893;-82
2022/02/21 00:05:57;;;;;;;;;;;22.80;41.60;;;;;;686215;28;877;-83
2022/02/21 00:06:19;;;;;;;;;;;22.90;41.70;;;;;;686288;28;869;-81
2022/02/21 00:06:43;;;;;;;;;;;22.80;41.70;;;;;;686215;28;802;-82
2022/02/21 00:07:04;;;;;;;;;;;22.90;41.70;;;;;;686245;28;807;-83
2022/02/21 00:07:24;;;;;;;;;;;22.90;41.70;;;;;;685847;28;1264;-83
2022/02/21 00:07:45;;;;;;;;;;;22.90;41.70;;;;;;686091;28;842;-83
2022/02/21 00:08:06;;;;;;;;;;;22.80;41.60;;;;;;685958;28;882;-83
2022/02/21 00:08:26;;;;;;;;;;;22.80;41.60;;;;;;686055;28;802;-83
2022/02/21 00:08:47;;;;;;;;;;;22.80;41.70;;;;;;683049;28;1240;-82
2022/02/21 00:09:07;;;;;;;;;;;22.80;41.70;;;;;;683121;28;921;-83
2022/02/21 00:09:28;;;;;;;;;;;22.80;41.60;;;;;;685600;28;822;-83
2022/02/21 00:09:48;;;;;;;;;;;22.80;41.60;;;;;;686111;28;869;-81
2022/02/21 00:10:11;;;;;;;;;;;22.80;41.60;;;;;;685927;28;1410;-84
2022/02/21 00:10:31;;;;;;;;;;;22.80;41.80;;;;;;685848;28;855;-82
2022/02/21 00:10:52;;;;;;;;;;;22.80;41.70;;;;;;686205;28;873;-83
2022/02/21 00:11:12;;;;;;;;;;;22.80;41.80;;;;;;685930;28;854;-83
2022/02/21 00:11:33;;;;;;;;;;;22.80;41.80;;;;;;683145;29;1961;-82
2022/02/21 00:11:54;;;;;;;;;;;22.80;41.80;;;;;;683401;29;811;-81
2022/02/21 00:12:14;;;;;;;;;;;22.80;41.80;;;;;;683253;29;1433;-83
2022/02/21 00:12:35;;;;;;;;;;;22.80;41.80;;;;;;683184;29;1522;-83
2022/02/21 00:12:56;;;;;;;;;;;22.80;41.80;;;;;;683327;29;893;-83
2022/02/21 00:13:16;;;;;;;;;;;22.80;41.70;;;;;;683780;28;846;-82
2022/02/21 00:13:37;;;;;;;;;;;22.80;41.80;;;;;;685910;28;1443;-81
2022/02/21 00:13:57;;;;;;;;;;;22.80;41.80;;;;;;685984;28;790;-82
2022/02/21 00:14:18;;;;;;;;;;;22.80;41.80;;;;;;685927;28;1107;-83
2022/02/21 00:14:39;;;;;;;;;;;22.80;41.80;;;;;;685911;28;953;-82
2022/02/21 00:14:59;;;;;;;;;;;22.80;41.80;;;;;;686036;28;834;-83
2022/02/21 00:15:23;;;;;;;;;;;22.80;41.90;;;;;;686129;28;893;-84
2022/02/21 00:15:44;;;;;;;;;;;22.80;41.80;;;;;;686036;28;889;-81
2022/02/21 00:16:05;;;;;;;;;;;22.80;41.90;;;;;;686059;28;861;-82
2022/02/21 00:16:25;;;;;;;;;;;22.80;41.90;;;;;;686161;28;890;-82
2022/02/21 00:16:46;;;;;;;;;;;22.80;41.90;;;;;;686208;28;1335;-81
2022/02/21 00:17:06;;;;;;;;;;;22.80;41.80;;;;;;686172;28;818;-84
2022/02/21 00:17:27;;;;;;;;;;;22.80;41.80;;;;;;686217;28;806;-84
2022/02/21 00:17:47;;;;;;;;;;;22.80;41.90;;;;;;686309;28;790;-84
2022/02/21 00:18:08;;;;;;;;;;;22.80;41.90;;;;;;686156;28;894;-83
2022/02/21 00:18:28;;;;;;;;;;;22.80;41.80;;;;;;686161;28;1419;-85
2022/02/21 00:18:49;;;;;;;;;;;22.80;41.80;;;;;;686336;28;849;-83
2022/02/21 00:19:10;;;;;;;;;;;22.80;41.90;;;;;;686172;28;782;-84
2022/02/21 00:19:30;;;;;;;;;;;22.80;41.80;;;;;;686154;28;904;-82
2022/02/21 00:19:51;;;;;;;;;;;22.80;41.80;;;;;;686243;28;810;-84
2022/02/21 00:20:11;;;;;;;;;;;22.80;41.90;;;;;;686279;28;786;-82
2022/02/21 00:20:32;;;;;;;;;;;22.80;41.90;;;;;;686158;28;894;-83
2022/02/21 00:20:53;;;;;;;;;;;22.80;41.80;;;;;;686322;28;850;-83
2022/02/21 00:21:13;;;;;;;;;;;22.80;41.90;;;;;;686183;28;885;-82
2022/02/21 00:21:34;;;;;;;;;;;22.80;41.80;;;;;;683777;28;1140;-82
2022/02/21 00:21:54;;;;;;;;;;;22.80;41.80;;;;;;683312;29;811;-84
2022/02/21 00:22:15;;;;;;;;;;;22.80;41.90;;;;;;683397;29;882;-83
2022/02/21 00:22:35;;;;;;;;;;;22.80;41.90;;;;;;683161;29;1509;-83
2022/02/21 00:22:56;;;;;;;;;;;22.80;42.00;;;;;;683265;29;560;-85
2022/02/21 00:23:16;;;;;;;;;;;22.80;41.90;;;;;;683415;29;838;-84
2022/02/21 00:23:37;;;;;;;;;;;22.80;41.80;;;;;;683315;29;1408;-84
2022/02/21 00:23:58;;;;;;;;;;;22.80;41.90;;;;;;683294;29;912;-83
2022/02/21 00:24:18;;;;;;;;;;;22.80;41.90;;;;;;683389;29;912;-85
2022/02/21 00:24:39;;;;;;;;;;;22.80;41.90;;;;;;683468;29;874;-82
2022/02/21 00:24:59;;;;;;;;;;;22.80;41.90;;;;;;683157;29;1194;-80
2022/02/21 00:25:20;;;;;;;;;;;22.80;41.90;;;;;;683346;29;853;-82
2022/02/21 00:25:40;;;;;;;;;;;22.80;42.10;;;;;;683259;29;826;-86
2022/02/21 00:26:01;;;;;;;;;;;22.80;42.50;;;;;;680024;29;1255;-83
2022/02/21 00:26:22;;;;;;;;;;;22.80;42.70;;;;;;680668;29;780;-83
2022/02/21 00:26:42;;;;;;;;;;;22.80;43.00;;;;;;680907;29;858;-80
2022/02/21 00:27:03;;;;;;;;;;;22.80;43.30;;;;;;683270;29;1343;-81
2022/02/21 00:27:23;;;;;;;;;;;22.80;43.50;;;;;;680796;29;898;-82
2022/02/21 00:27:44;;;;;;;;;;;22.80;43.40;;;;;;680916;29;866;-80
2022/02/21 00:28:04;;;;;;;;;;;22.90;43.20;;;;;;680293;29;935;-84
2022/02/21 00:28:25;;;;;;;;;;;22.90;43.10;;;;;;680773;29;917;-89
2022/02/21 00:28:46;;;;;;;;;;;22.80;43.10;;;;;;680885;29;870;-91
2022/02/21 00:29:08;;;;;;;;;;;22.90;43.30;;;;;;680732;29;1237;-86
2022/02/21 00:29:29;;;;;;;;;;;22.90;43.30;;;;;;678092;29;1335;-82
2022/02/21 00:29:50;;;;;;;;;;;22.90;43.20;;;;;;678818;29;866;-84
2022/02/21 00:30:11;;;;;;;;;;;22.90;43.10;;;;;;680529;29;1329;-83
2022/02/21 00:30:32;;;;;;;;;;;22.90;43.20;;;;;;680599;29;1030;-83
2022/02/21 00:30:52;;;;;;;;;;;22.90;43.10;;;;;;681368;29;878;-82
2022/02/21 00:31:13;;;;;;;;;;;22.90;43.10;;;;;;683264;29;826;-84
2022/02/21 00:31:34;;;;;;;;;;;22.90;43.00;;;;;;685159;28;1949;-80
2022/02/21 00:31:55;;;;;;;;;;;22.90;43.00;;;;;;683979;28;1397;-82
2022/02/21 00:32:16;;;;;;;;;;;22.90;43.00;;;;;;685603;28;1448;-81
2022/02/21 00:32:36;;;;;;;;;;;22.90;44.10;;;;;;683813;28;1469;-82
2022/02/21 00:32:57;;;;;;;;;;;22.90;42.90;;;;;;685659;28;1275;-82
2022/02/21 00:33:17;;;;;;;;;;;22.90;43.00;;;;;;683797;28;1330;-84
2022/02/21 00:33:38;;;;;;;;;;;22.90;42.90;;;;;;685847;28;1335;-81
2022/02/21 00:33:59;;;;;;;;;;;22.90;42.90;;;;;;683529;28;1386;-83
2022/02/21 00:34:19;;;;;;;;;;;22.90;42.90;;;;;;686057;28;1418;-83
2022/02/21 00:34:40;;;;;;;;;;;22.90;42.90;;;;;;683353;28;1354;-84
2022/02/21 00:35:00;;;;;;;;;;;22.90;42.80;;;;;;682961;29;1365;-82
2022/02/21 00:35:21;;;;;;;;;;;22.90;42.80;;;;;;680874;29;1303;-82
2022/02/21 00:35:42;;;;;;;;;;;22.90;42.80;;;;;;682948;29;1299;-83
2022/02/21 00:36:03;;;;;;;;;;;22.90;42.80;;;;;;680909;29;1369;-87
2022/02/21 00:36:23;;;;;;;;;;;23.00;42.80;;;;;;682962;29;1322;-82
2022/02/21 00:36:44;;;;;;;;;;;23.00;42.70;;;;;;681308;28;1286;-84
2022/02/21 00:37:04;;;;;;;;;;;23.00;42.80;;;;;;682402;29;1283;-82
2022/02/21 00:37:25;;;;;;;;;;;23.00;42.70;;;;;;681362;29;1244;-83
2022/02/21 00:37:45;;;;;;;;;;;22.90;42.70;;;;;;680499;29;1220;-84
2022/02/21 00:38:06;;;;;;;;;;;22.90;42.60;;;;;;680527;29;1256;-84
2022/02/21 00:38:27;;;;;;;;;;;23.00;42.70;;;;;;680586;29;1321;-83
2022/02/21 00:38:47;;;;;;;;;;;23.00;42.60;;;;;;680945;29;1193;-83
2022/02/21 00:39:08;;;;;;;;;;;23.00;42.70;;;;;;682047;29;1267;-85
2022/02/21 00:39:29;;;;;;;;;;;23.00;42.60;;;;;;681984;28;1279;-86
2022/02/21 00:39:50;;;;;;;;;;;23.00;42.60;;;;;;684823;28;1212;-82
2022/02/21 00:40:10;;;;;;;;;;;23.00;42.60;;;;;;684892;28;1192;-85
2022/02/21 00:40:31;;;;;;;;;;;23.00;42.60;;;;;;684431;28;1406;-84
2022/02/21 00:40:52;;;;;;;;;;;23.00;42.60;;;;;;684983;28;1271;-82
2022/02/21 00:41:12;;;;;;;;;;;23.00;42.50;;;;;;684383;28;1251;-82
2022/02/21 00:41:33;;;;;;;;;;;23.00;42.60;;;;;;685147;28;1267;-83
2022/02/21 00:41:53;;;;;;;;;;;23.00;42.60;;;;;;684418;28;1220;-82
2022/02/21 00:42:14;;;;;;;;;;;23.00;42.50;;;;;;685254;28;1200;-82
2022/02/21 00:42:35;;;;;;;;;;;23.00;42.50;;;;;;683971;28;1421;-83
2022/02/21 00:42:55;;;;;;;;;;;23.00;42.60;;;;;;682553;29;1319;-84
2022/02/21 00:43:16;;;;;;;;;;;23.00;42.50;;;;;;680988;29;1422;-84
2022/02/21 00:43:37;;;;;;;;;;;23.00;42.50;;;;;;680122;29;1296;-85
2022/02/21 00:43:57;;;;;;;;;;;23.00;42.50;;;;;;678202;29;1406;-84
2022/02/21 00:44:18;;;;;;;;;;;23.00;42.50;;;;;;680452;29;1335;-83
2022/02/21 00:44:39;;;;;;;;;;;23.00;42.50;;;;;;677925;29;1231;-83
2022/02/21 00:45:00;;;;;;;;;;;23.00;42.50;;;;;;680853;29;1320;-83
2022/02/21 00:45:20;;;;;;;;;;;23.00;42.50;;;;;;680619;29;1342;-82
2022/02/21 00:45:41;;;;;;;;;;;23.00;42.50;;;;;;680347;29;1283;-84
2022/02/21 00:46:02;;;;;;;;;;;23.00;42.50;;;;;;678144;29;1245;-83
2022/02/21 00:46:22;;;;;;;;;;;23.00;42.40;;;;;;680585;29;1278;-84
2022/02/21 00:46:43;;;;;;;;;;;23.00;42.40;;;;;;680796;29;1453;-83
2022/02/21 00:47:03;;;;;;;;;;;23.00;43.50;;;;;;682644;29;1322;-81
2022/02/21 00:47:25;;;;;;;;;;;23.00;42.40;;;;;;681344;28;1430;-82
2022/02/21 00:47:45;;;;;;;;;;;23.00;42.50;;;;;;685202;28;1330;-81
2022/02/21 00:48:06;;;;;;;;;;;23.00;42.40;;;;;;681291;29;1259;-81
2022/02/21 00:48:28;;;;;;;;;;;23.00;42.40;;;;;;682252;29;1259;-81
2022/02/21 00:48:48;;;;;;;;;;;23.00;42.40;;;;;;681714;29;1434;-84
2022/02/21 00:49:09;;;;;;;;;;;23.00;42.40;;;;;;681847;29;1272;-82
2022/02/21 00:49:29;;;;;;;;;;;23.00;42.40;;;;;;681792;29;1193;-83
2022/02/21 00:49:51;;;;;;;;;;;23.00;43.40;;;;;;682454;29;1414;-82
2022/02/21 00:50:11;;;;;;;;;;;23.00;42.30;;;;;;684877;28;1275;-84
2022/02/21 00:50:32;;;;;;;;;;;23.00;42.30;;;;;;683982;28;1454;-83
2022/02/21 00:50:52;;;;;;;;;;;23.00;42.50;;;;;;683610;29;827;-83
2022/02/21 00:51:13;;;;;;;;;;;23.00;42.40;;;;;;683516;29;1080;-83
2022/02/21 00:51:34;;;;;;;;;;;23.00;42.30;;;;;;683332;29;1910;-82
2022/02/21 00:51:54;;;;;;;;;;;23.00;42.30;;;;;;683489;29;863;-82
2022/02/21 00:52:15;;;;;;;;;;;23.00;42.30;;;;;;683559;29;890;-81
2022/02/21 00:52:35;;;;;;;;;;;23.00;42.30;;;;;;683315;29;1342;-82
2022/02/21 00:52:56;;;;;;;;;;;23.00;42.30;;;;;;683485;29;890;-81
2022/02/21 00:53:16;;;;;;;;;;;23.00;42.30;;;;;;683411;29;934;-82
2022/02/21 00:53:37;;;;;;;;;;;23.00;42.30;;;;;;683389;29;826;-83
2022/02/21 00:53:58;;;;;;;;;;;23.00;42.40;;;;;;683342;29;929;-82
2022/02/21 00:54:18;;;;;;;;;;;23.00;42.30;;;;;;683461;29;846;-82
2022/02/21 00:54:40;;;;;;;;;;;23.00;42.30;;;;;;680377;29;1114;-81
2022/02/21 00:55:00;;;;;;;;;;;23.00;42.30;;;;;;680624;29;843;-82
2022/02/21 00:55:21;;;;;;;;;;;23.00;42.40;;;;;;680646;29;792;-83
2022/02/21 00:55:41;;;;;;;;;;;23.00;42.30;;;;;;680538;29;807;-82
2022/02/21 00:56:02;;;;;;;;;;;23.00;42.40;;;;;;680602;29;819;-83
2022/02/21 00:56:23;;;;;;;;;;;23.00;42.30;;;;;;681221;29;796;-82
2022/02/21 00:56:43;;;;;;;;;;;23.00;42.30;;;;;;683485;29;886;-82
2022/02/21 00:57:04;;;;;;;;;;;23.00;42.30;;;;;;683557;29;882;-82
2022/02/21 00:57:24;;;;;;;;;;;23.10;42.40;;;;;;680498;29;1228;-82
2022/02/21 00:57:45;;;;;;;;;;;23.00;42.30;;;;;;680637;29;882;-82
2022/02/21 00:58:06;;;;;;;;;;;23.00;42.30;;;;;;680616;29;808;-81
2022/02/21 00:58:26;;;;;;;;;;;23.00;42.40;;;;;;680576;29;842;-82
2022/02/21 00:58:47;;;;;;;;;;;23.00;42.30;;;;;;680704;29;815;-82
2022/02/21 00:59:07;;;;;;;;;;;23.10;42.30;;;;;;680888;29;823;-81
2022/02/21 00:59:28;;;;;;;;;;;23.00;42.40;;;;;;683372;29;850;-84
2022/02/21 00:59:48;;;;;;;;;;;23.00;42.30;;;;;;683500;29;842;-84
2022/02/21 01:00:09;;;;;;;;;;;23.00;42.30;;;;;;683399;29;804;-85
2022/02/21 01:00:30;;;;;;;;;;;23.00;42.30;;;;;;683405;29;823;-84
2022/02/21 01:00:51;;;;;;;;;;;23.00;42.30;;;;;;683523;29;843;-85
2022/02/21 01:01:11;;;;;;;;;;;23.10;42.40;;;;;;683439;29;827;-84
2022/02/21 01:01:32;;;;;;;;;;;23.00;43.40;;;;;;683437;29;985;-84
2022/02/21 01:01:53;;;;;;;;;;;23.00;42.30;;;;;;680577;29;1376;-83
2022/02/21 01:02:13;;;;;;;;;;;23.00;42.30;;;;;;680525;29;879;-84
2022/02/21 01:02:34;;;;;;;;;;;23.00;42.20;;;;;;680549;29;874;-84
2022/02/21 01:02:55;;;;;;;;;;;23.00;42.20;;;;;;680616;29;1029;-83
2022/02/21 01:03:15;;;;;;;;;;;23.00;42.20;;;;;;680838;29;922;-84
2022/02/21 01:03:36;;;;;;;;;;;23.00;42.20;;;;;;680930;29;808;-84
2022/02/21 01:03:57;;;;;;;;;;;23.00;42.20;;;;;;683398;29;861;-85
2022/02/21 01:04:17;;;;;;;;;;;23.00;42.30;;;;;;683357;29;1389;-84
2022/02/21 01:04:39;;;;;;;;;;;23.00;42.30;;;;;;683356;29;847;-84
2022/02/21 01:04:59;;;;;;;;;;;23.00;42.20;;;;;;683371;29;847;-84
2022/02/21 01:05:20;;;;;;;;;;;23.00;42.30;;;;;;683456;29;823;-84
2022/02/21 01:05:40;;;;;;;;;;;23.00;42.20;;;;;;683380;29;807;-84
2022/02/21 01:06:01;;;;;;;;;;;23.00;42.30;;;;;;683379;29;965;-84
2022/02/21 01:06:22;;;;;;;;;;;23.00;42.30;;;;;;683372;29;1385;-84
2022/02/21 01:06:42;;;;;;;;;;;23.00;42.30;;;;;;683323;29;823;-84
2022/02/21 01:07:03;;;;;;;;;;;23.00;42.30;;;;;;683372;29;863;-83
2022/02/21 01:07:24;;;;;;;;;;;23.00;42.40;;;;;;683426;29;954;-82
2022/02/21 01:07:44;;;;;;;;;;;23.00;42.30;;;;;;680501;29;1488;-84
2022/02/21 01:08:06;;;;;;;;;;;23.00;42.30;;;;;;680556;29;816;-84
2022/02/21 01:08:27;;;;;;;;;;;23.00;42.30;;;;;;680411;29;803;-84
2022/02/21 01:08:47;;;;;;;;;;;23.00;42.30;;;;;;680635;29;819;-84
2022/02/21 01:09:08;;;;;;;;;;;23.00;42.40;;;;;;680482;29;1504;-84
2022/02/21 01:09:29;;;;;;;;;;;22.90;42.30;;;;;;680479;29;1196;-84
2022/02/21 01:09:49;;;;;;;;;;;23.00;42.30;;;;;;680672;29;824;-84
2022/02/21 01:10:10;;;;;;;;;;;23.00;42.30;;;;;;680575;29;890;-84
2022/02/21 01:10:30;;;;;;;;;;;22.90;42.30;;;;;;680448;29;807;-85
2022/02/21 01:10:51;;;;;;;;;;;22.90;42.20;;;;;;680567;29;1456;-84
2022/02/21 01:11:12;;;;;;;;;;;22.90;42.20;;;;;;677771;29;1231;-85
2022/02/21 01:11:33;;;;;;;;;;;23.00;42.30;;;;;;677894;29;1969;-85
2022/02/21 01:11:53;;;;;;;;;;;22.90;42.20;;;;;;678021;29;795;-85
2022/02/21 01:12:14;;;;;;;;;;;23.00;42.30;;;;;;677886;29;1353;-84
2022/02/21 01:12:34;;;;;;;;;;;22.90;42.20;;;;;;678098;29;1001;-84
2022/02/21 01:12:55;;;;;;;;;;;22.90;42.20;;;;;;680776;29;1425;-85
2022/02/21 01:13:16;;;;;;;;;;;22.90;42.20;;;;;;683455;29;858;-84
2022/02/21 01:13:36;;;;;;;;;;;22.90;42.20;;;;;;683360;29;854;-84
2022/02/21 01:13:57;;;;;;;;;;;22.90;42.20;;;;;;683368;29;847;-85
2022/02/21 01:14:18;;;;;;;;;;;22.90;42.20;;;;;;683438;29;878;-84
2022/02/21 01:14:39;;;;;;;;;;;22.90;42.20;;;;;;683295;29;776;-83
2022/02/21 01:14:59;;;;;;;;;;;22.90;42.30;;;;;;683276;29;1425;-85
2022/02/21 01:15:20;;;;;;;;;;;22.90;42.30;;;;;;683380;29;918;-84
2022/02/21 01:15:40;;;;;;;;;;;22.90;42.20;;;;;;683367;29;780;-85
2022/02/21 01:16:01;;;;;;;;;;;22.90;42.30;;;;;;683433;29;791;-84
2022/02/21 01:16:23;;;;;;;;;;;22.90;42.20;;;;;;683478;29;946;-85
2022/02/21 01:16:43;;;;;;;;;;;22.90;42.30;;;;;;683307;29;851;-85
2022/02/21 01:17:04;;;;;;;;;;;22.90;42.30;;;;;;683359;29;831;-83
2022/02/21 01:17:27;;;;;;;;;;;22.90;42.30;;;;;;683448;29;803;-82
2022/02/21 01:17:47;;;;;;;;;;;22.90;42.30;;;;;;683474;29;811;-86
2022/02/21 01:18:08;;;;;;;;;;;22.80;42.30;;;;;;683674;29;819;-92
2022/02/21 01:18:29;;;;;;;;;;;22.90;42.30;;;;;;680335;29;1317;-90
2022/02/21 01:18:49;;;;;;;;;;;22.90;42.30;;;;;;678300;29;1216;-92
2022/02/21 01:19:10;;;;;;;;;;;22.80;42.30;;;;;;677952;29;1440;-86
2022/02/21 01:19:30;;;;;;;;;;;22.90;42.30;;;;;;677980;29;1239;-89
2022/02/21 01:19:51;;;;;;;;;;;22.80;42.30;;;;;;675600;29;1188;-86
2022/02/21 01:20:12;;;;;;;;;;;22.90;42.40;;;;;;675825;29;1455;-89
2022/02/21 01:20:38;;;;;;;;;;;22.90;42.40;;;;;;678030;29;891;-90
2022/02/21 01:21:00;;;;;;;;;;;22.80;42.40;;;;;;675424;29;1149;-87
2022/02/21 01:21:20;;;;;;;;;;;22.80;42.40;;;;;;677188;29;1084;-91
2022/02/21 01:21:41;;;;;;;;;;;22.80;42.30;;;;;;675599;29;1359;-89
2022/02/21 01:22:03;;;;;;;;;;;22.80;42.40;;;;;;675432;29;1252;-87
2022/02/21 01:22:24;;;;;;;;;;;22.80;42.30;;;;;;673622;29;1126;-87
2022/02/21 01:22:44;;;;;;;;;;;22.80;42.30;;;;;;672698;29;1189;-85
2022/02/21 01:23:05;;;;;;;;;;;22.80;42.30;;;;;;672680;29;1532;-87
2022/02/21 01:23:26;;;;;;;;;;;22.80;42.30;;;;;;673263;29;900;-87
2022/02/21 01:23:46;;;;;;;;;;;22.80;42.30;;;;;;675441;29;1124;-87
2022/02/21 01:24:07;;;;;;;;;;;22.80;42.30;;;;;;675518;29;939;-88
2022/02/21 01:24:28;;;;;;;;;;;22.80;42.20;;;;;;675919;29;835;-86
2022/02/21 01:24:48;;;;;;;;;;;22.80;42.40;;;;;;678357;29;816;-86
2022/02/21 01:25:09;;;;;;;;;;;22.80;42.40;;;;;;677759;29;1096;-86
2022/02/21 01:25:29;;;;;;;;;;;22.80;42.50;;;;;;678242;29;884;-86
2022/02/21 01:25:50;;;;;;;;;;;22.80;42.90;;;;;;678096;29;772;-86
2022/02/21 01:26:10;;;;;;;;;;;22.80;43.30;;;;;;677990;29;879;-86
2022/02/21 01:26:31;;;;;;;;;;;22.80;43.50;;;;;;677858;29;1083;-86
2022/02/21 01:26:51;;;;;;;;;;;22.80;44.30;;;;;;678189;29;1092;-85
2022/02/21 01:27:15;;;;;;;;;;;22.80;44.30;;;;;;677747;29;1097;-86
2022/02/21 01:27:36;;;;;;;;;;;22.80;44.60;;;;;;677884;29;1327;-87
2022/02/21 01:27:57;;;;;;;;;;;22.90;46.00;;;;;;675449;29;922;-89
2022/02/21 01:28:17;;;;;;;;;;;22.90;51.30;;;;;;675099;29;1267;-87
2022/02/21 01:28:38;;;;;;;;;;;22.90;53.50;;;;;;672618;29;1219;-87
2022/02/21 01:28:58;;;;;;;;;;;22.90;55.10;;;;;;673405;29;1339;-86
2022/02/21 01:29:19;;;;;;;;;;;22.90;55.20;;;;;;675493;29;990;-88
2022/02/21 01:29:40;;;;;;;;;;;22.90;56.30;;;;;;675581;29;915;-86
2022/02/21 01:30:02;;;;;;;;;;;22.90;58.30;;;;;;678001;29;882;-87
2022/02/21 01:30:23;;;;;;;;;;;22.90;60.80;;;;;;678538;29;962;-86
2022/02/21 01:30:43;;;;;;;;;;;23.00;61.30;;;;;;680508;29;1211;-87
2022/02/21 01:31:04;;;;;;;;;;;23.00;62.10;;;;;;677795;29;1223;-86
2022/02/21 01:31:24;;;;;;;;;;;23.00;62.60;;;;;;675087;29;1958;-86
2022/02/21 01:31:45;;;;;;;;;;;23.00;62.50;;;;;;674556;29;1334;-86
2022/02/21 01:32:06;;;;;;;;;;;23.00;61.90;;;;;;670179;29;1397;-85
2022/02/21 01:32:27;;;;;;;;;;;23.00;60.70;;;;;;670070;29;1110;-87
2022/02/21 01:32:47;;;;;;;;;;;23.00;61.80;;;;;;670380;29;1255;-87
2022/02/21 01:33:08;;;;;;;;;;;23.00;59.50;;;;;;673082;29;812;-87
2022/02/21 01:33:28;;;;;;;;;;;22.70;61.10;;;;;;672623;29;1252;-86
2022/02/21 01:33:49;;;;;;;;;;;23.10;63.30;;;;;;673003;29;1199;-85
2022/02/21 01:34:10;;;;;;;;;;;23.10;64.50;;;;;;672605;29;1487;-86
2022/02/21 01:34:30;;;;;;;;;;;23.10;65.00;;;;;;672852;29;1327;-90
2022/02/21 01:34:51;;;;;;;;;;;23.10;66.20;;;;;;672989;29;1407;-89
2022/02/21 01:35:11;;;;;;;;;;;23.10;66.60;;;;;;670359;29;1365;-94
2022/02/21 01:35:32;;;;;;;;;;;23.10;63.50;;;;;;670545;29;1203;-91
2022/02/21 01:35:53;;;;;;;;;;;23.10;64.40;;;;;;670507;29;1208;-87
2022/02/21 01:36:13;;;;;;;;;;;23.10;65.50;;;;;;672696;29;1201;-87
2022/02/21 01:36:34;;;;;;;;;;;23.00;65.50;;;;;;670410;29;1082;-87
2022/02/21 01:36:54;;;;;;;;;;;23.20;66.50;;;;;;672575;29;1250;-87
2022/02/21 01:37:15;;;;;;;;;;;23.20;66.70;;;;;;672825;29;1329;-85
2022/02/21 01:37:36;;;;;;;;;;;23.20;68.10;;;;;;672897;29;1164;-87
2022/02/21 01:37:56;;;;;;;;;;;23.20;68.10;;;;;;675610;29;874;-87
2022/02/21 01:38:17;;;;;;;;;;;23.20;67.30;;;;;;677886;29;1272;-87
2022/02/21 01:38:37;;;;;;;;;;;23.20;68.80;;;;;;674351;29;1367;-88
2022/02/21 01:38:58;;;;;;;;;;;23.20;69.50;;;;;;672778;29;1224;-87
2022/02/21 01:39:19;;;;;;;;;;;23.20;66.80;;;;;;670323;29;860;-88
2022/02/21 01:39:40;;;;;;;;;;;23.20;65.70;;;;;;667824;29;1304;-86
2022/02/21 01:40:01;;;;;;;;;;;23.30;67.10;;;;;;668414;29;1323;-87
2022/02/21 01:40:21;;;;;;;;;;;23.30;68.40;;;;;;668946;29;916;-86
2022/02/21 01:40:42;;;;;;;;;;;23.30;68.60;;;;;;668355;29;1346;-87
2022/02/21 01:41:02;;;;;;;;;;;23.20;68.30;;;;;;667782;29;1288;-86
2022/02/21 01:41:23;;;;;;;;;;;23.30;69.90;;;;;;668760;29;855;-86
2022/02/21 01:41:44;;;;;;;;;;;23.30;70.50;;;;;;668413;29;1390;-86
2022/02/21 01:42:05;;;;;;;;;;;23.30;72.30;;;;;;670989;29;821;-86
2022/02/21 01:42:26;;;;;;;;;;;23.30;71.90;;;;;;670838;29;1313;-86
2022/02/21 01:42:46;;;;;;;;;;;23.30;71.80;;;;;;671284;29;1201;-87
2022/02/21 01:43:07;;;;;;;;;;;23.30;72.40;;;;;;671080;29;1123;-90
2022/02/21 01:43:31;;;;;;;;;;;23.40;73.60;;;;;;671419;29;1290;-90
2022/02/21 01:44:11;;;;;;;;;;;23.30;72.40;;;;;;670852;29;1196;-92
2022/02/21 01:44:36;;;;;;;;;;;23.30;72.60;;;;;;668603;29;1151;-85
2022/02/21 01:44:57;;;;;;;;;;;23.30;70.20;;;;;;669214;29;1351;-88
2022/02/21 01:45:18;;;;;;;;;;;23.40;71.20;;;;;;669681;29;1158;-87
2022/02/21 01:45:38;;;;;;;;;;;23.40;71.70;;;;;;671824;29;1274;-86
2022/02/21 01:45:59;;;;;;;;;;;23.40;70.10;;;;;;673275;29;979;-85
2022/02/21 01:46:19;;;;;;;;;;;23.40;71.40;;;;;;674155;29;1168;-86
2022/02/21 01:46:40;;;;;;;;;;;23.40;69.10;;;;;;673461;29;1408;-88
2022/02/21 01:47:01;;;;;;;;;;;23.40;68.20;;;;;;673620;29;1445;-88
2022/02/21 01:47:22;;;;;;;;;;;23.40;70.00;;;;;;673760;29;1331;-89
2022/02/21 01:47:43;;;;;;;;;;;23.40;70.90;;;;;;673559;29;983;-89
2022/02/21 01:48:03;;;;;;;;;;;23.40;69.30;;;;;;673669;29;1297;-88
2022/02/21 01:48:24;;;;;;;;;;;23.40;68.30;;;;;;675885;29;1104;-83
2022/02/21 01:48:45;;;;;;;;;;;23.40;71.30;;;;;;677745;29;1383;-81
2022/02/21 01:49:06;;;;;;;;;;;23.40;79.30;;;;;;677877;29;1434;-81
2022/02/21 01:49:27;;;;;;;;;;;23.50;83.80;;;;;;677716;29;1486;-81
2022/02/21 01:49:48;;;;;;;;;;;23.50;85.50;;;;;;674931;29;1093;-83
2022/02/21 01:50:08;;;;;;;;;;;23.50;84.20;;;;;;675162;29;875;-83
2022/02/21 01:50:29;;;;;;;;;;;23.50;82.70;;;;;;675161;29;1438;-82
2022/02/21 01:50:49;;;;;;;;;;;23.50;81.40;;;;;;675809;29;862;-83
2022/02/21 01:51:10;;;;;;;;;;;23.50;81.00;;;;;;678546;29;828;-84
2022/02/21 01:51:31;;;;;;;;;;;23.50;79.80;;;;;;680539;29;1907;-86
2022/02/21 01:51:52;;;;;;;;;;;23.50;78.90;;;;;;678571;29;1422;-86
2022/02/21 01:52:13;;;;;;;;;;;23.50;73.20;;;;;;678319;29;1482;-85
2022/02/21 01:52:33;;;;;;;;;;;23.50;76.40;;;;;;675853;29;1099;-82
2022/02/21 01:52:54;;;;;;;;;;;23.50;77.20;;;;;;674900;29;1680;-81
2022/02/21 01:53:15;;;;;;;;;;;23.50;77.10;;;;;;675256;29;1589;-81
2022/02/21 01:53:35;;;;;;;;;;;23.50;76.70;;;;;;675407;29;1447;-82
2022/02/21 01:53:56;;;;;;;;;;;23.50;75.60;;;;;;677908;29;866;-82
2022/02/21 01:54:16;;;;;;;;;;;23.50;75.10;;;;;;679301;29;1039;-82
2022/02/21 01:54:37;;;;;;;;;;;23.50;74.70;;;;;;680856;29;1426;-82
2022/02/21 01:54:58;;;;;;;;;;;23.50;74.90;;;;;;682096;29;1516;-81
2022/02/21 01:55:18;;;;;;;;;;;23.50;75.00;;;;;;683313;29;859;-81
2022/02/21 01:55:39;;;;;;;;;;;23.40;74.90;;;;;;680637;29;1359;-80
2022/02/21 01:56:02;;;;;;;;;;;23.50;74.20;;;;;;680565;29;844;-79
2022/02/21 01:56:24;;;;;;;;;;;23.50;73.90;;;;;;680645;29;827;-80
2022/02/21 01:56:44;;;;;;;;;;;23.50;73.60;;;;;;681035;29;1331;-82
2022/02/21 01:57:05;;;;;;;;;;;23.20;73.30;;;;;;682985;29;919;-80
2022/02/21 01:57:26;;;;;;;;;;;23.40;72.90;;;;;;683266;29;915;-80
2022/02/21 01:57:48;;;;;;;;;;;23.40;72.60;;;;;;683258;29;803;-82
2022/02/21 01:58:09;;;;;;;;;;;23.40;72.40;;;;;;683091;29;831;-80
2022/02/21 01:58:30;;;;;;;;;;;23.40;72.20;;;;;;682799;29;1089;-80
2022/02/21 01:58:50;;;;;;;;;;;23.40;72.20;;;;;;682110;29;1343;-80
2022/02/21 01:59:11;;;;;;;;;;;23.40;73.30;;;;;;683284;29;978;-80
2022/02/21 01:59:33;;;;;;;;;;;23.40;71.80;;;;;;683293;29;827;-81
2022/02/21 01:59:53;;;;;;;;;;;23.40;71.40;;;;;;683370;29;883;-81
2022/02/21 02:00:14;;;;;;;;;;;23.40;71.30;;;;;;683246;29;823;-81
2022/02/21 02:00:35;;;;;;;;;;;23.40;70.90;;;;;;683197;29;1019;-80
2022/02/21 02:00:55;;;;;;;;;;;23.40;70.80;;;;;;680232;29;872;-81
2022/02/21 02:01:16;;;;;;;;;;;23.40;70.50;;;;;;678563;29;843;-81
2022/02/21 02:01:37;;;;;;;;;;;23.40;70.50;;;;;;679110;29;1356;-81
2022/02/21 02:01:57;;;;;;;;;;;23.40;70.50;;;;;;680302;29;930;-80
2022/02/21 02:02:18;;;;;;;;;;;23.40;70.40;;;;;;678206;29;1342;-81
2022/02/21 02:02:43;;;;;;;;;;;23.30;70.20;;;;;;677766;29;1366;-80
2022/02/21 02:03:03;;;;;;;;;;;23.30;70.20;;;;;;677715;29;894;-81
2022/02/21 02:03:24;;;;;;;;;;;23.30;70.00;;;;;;677860;29;915;-82
2022/02/21 02:03:46;;;;;;;;;;;23.30;69.80;;;;;;677988;29;800;-81
2022/02/21 02:04:06;;;;;;;;;;;23.30;69.80;;;;;;678931;29;839;-81
2022/02/21 02:04:27;;;;;;;;;;;23.30;70.00;;;;;;680627;29;788;-81
2022/02/21 02:04:48;;;;;;;;;;;23.30;69.90;;;;;;680689;29;899;-81
2022/02/21 02:05:08;;;;;;;;;;;23.30;69.30;;;;;;680566;29;850;-82
2022/02/21 02:05:29;;;;;;;;;;;23.30;69.40;;;;;;680624;29;876;-81
2022/02/21 02:05:51;;;;;;;;;;;23.30;69.50;;;;;;677795;29;883;-81
2022/02/21 02:06:11;;;;;;;;;;;23.30;69.60;;;;;;677789;29;832;-78